Have a Safe July 4th! 

Flight Track Log - Related Links

Times and Time Zones

All times are in EDT time to prevent confusion due to time zone crossing. See the JIA2329 flight status page for this flight to view local times or setup timezone preferences in your user account.

Time Position Orientation Groundspeed Altitude Reporting Facility
EDT Latitude Longitude Course Direction KTS MPH feet Rate Location/Type
Sat 05:47:28 AM 42.7297 -73.8081 220° Southwest 156 180 1,300  Level Boston Center
Sat 05:48:34 AM 42.6939 -73.8525 222° Southwest 207 238 3,800 2,140 Climbing Boston Center
Sat 05:49:37 AM 42.7008 -73.9458 276° West 231 266 5,900 2,683 Climbing Boston Center
Sat 05:50:00 AM 42.7333 -74.1359 270° West  Level FlightAware Approximate
Sat 05:50:37 AM 42.6728 -74.0356 247° West 251 289 9,300  Level Boston Center
Sat 05:51:00 AM 42.7334 -74.2651 270° West  Level FlightAware Approximate
Sat 05:51:37 AM 42.6256 -74.1133 230° Southwest 257 296 12,500  Level Boston Center
Sat 05:52:00 AM 42.6861 -74.3678 220° Southwest  Level FlightAware Approximate
Sat 05:52:37 AM 42.5828 -74.1911 233° Southwest 272 313 14,500  Level Boston Center
Sat 05:53:37 AM 42.5311 -74.2939 236° Southwest 293 337 16,000 700 Climbing Boston Center
Sat 05:54:37 AM 42.4839 -74.3856 235° Southwest 320 368 15,900 -50 Descending Boston Center
Sat 05:55:37 AM 42.4256 -74.4906 233° Southwest 325 374 15,900  Level Boston Center
Sat 05:56:37 AM 42.3803 -74.5761 234° Southwest 318 366 15,900 35 Level Boston Center
Sat 05:58:27 AM 42.2875 -74.7514 234° Southwest 298 343 16,000 35 Climbing New York Center
Sat 05:59:27 AM 42.2406 -74.8436 236° Southwest 303 349 16,000  Level New York Center
Sat 06:00:25 AM 42.1917 -74.9358 234° Southwest 303 349 16,000  Level New York Center
Sat 06:01:26 AM 42.1311 -74.9992 218° Southwest 309 356 16,000  Level New York Center
Sat 06:02:26 AM 42.0497 -75.0664 212° Southwest 309 356 16,000  Level New York Center
Sat 06:03:25 AM 41.9767 -75.1258 211° Southwest 314 361 16,000  Level New York Center
Sat 06:04:25 AM 41.9125 -75.1772 211° Southwest 309 356 16,000  Level New York Center
Sat 06:05:25 AM 41.8328 -75.2444 212° Southwest 309 356 16,000 -298 Level New York Center
Sat 06:06:26 AM 41.7575 -75.3061 211° Southwest 309 356 15,400 -893 Descending New York Center
Sat 06:07:26 AM 41.6889 -75.3597 210° Southwest 309 356 14,200 -1,160 Descending New York Center
Sat 06:08:25 AM 41.6267 -75.4108 212° Southwest 304 350 13,100 -1,109 Descending New York Center
Sat 06:09:25 AM 41.5622 -75.4619 211° Southwest 294 338 12,000 -545 Descending New York Center
Sat 06:10:26 AM 41.4867 -75.5231 211° Southwest 288 331 12,000  Level New York Center
Sat 06:11:25 AM 41.4158 -75.5789 211° Southwest 288 331 12,000  Level New York Center
Sat 06:12:25 AM 41.3492 -75.6294 210° Southwest 293 337 12,000  Level New York Center
Sat 06:13:25 AM 41.2781 -75.6850 210° Southwest 298 343 12,000  Level New York Center
Sat 06:14:27 AM 41.1967 -75.6875 181° South 290 334 12,000  Level New York Center
Sat 06:15:27 AM 41.1161 -75.6706 171° South 290 334 12,000  Level New York Center
Sat 06:16:25 AM 41.0300 -75.6394 165° South 297 342 12,000  Level New York Center
Sat 06:17:27 AM 40.9478 -75.6117 166° South 297 342 12,000  Level New York Center
Sat 06:18:27 AM 40.8761 -75.5847 164° South 297 342 12,000  Level New York Center
Sat 06:19:25 AM 40.7939 -75.5569 166° South 297 342 12,000 -102 Level New York Center
Sat 06:20:25 AM 40.7033 -75.5233 164° South 302 348 11,800 -645 Descending New York Center
Sat 06:21:26 AM 40.6214 -75.4928 164° South 307 353 10,700 -885 Descending New York Center
Sat 06:22:27 AM 40.5478 -75.4578 160° South 292 336 10,000 -353 Descending New York Center
Sat 06:23:25 AM 40.4789 -75.4094 152° Southeast 286 329 10,000  Level New York Center
Sat 06:24:27 AM 40.4039 -75.3553 151° Southeast 297 342 10,000 -347 Level New York Center
Sat 06:25:26 AM 40.3308 -75.3014 151° Southeast 302 348 9,300 -1,311 Descending New York Center
Sat 06:26:26 AM 40.2681 -75.2567 151° Southeast 297 342 7,400 -1,686 Descending New York Center
Sat 06:27:27 AM 40.1886 -75.2081 155° Southeast 297 342 5,900 -1,664 Descending New York Center
Sat 06:28:25 AM 40.1294 -75.1689 153° Southeast 274 315 4,100 -1,300 Descending New York Center
Sat 06:29:27 AM 40.0581 -75.1292 157° South 255 293 3,300 -541 Descending New York Center
Sat 06:30:27 AM 39.9981 -75.1144 169° South 249 287 3,000 -661 Descending New York Center
Sat 06:31:25 AM 39.9383 -75.0972 168° South 215 247 2,000 -1,034 Descending New York Center

Login

Don't have an account? Register now (free) for customized features, flight alerts, and more!